Time;durP1;ratioP1;P1;durP2;ratioP2;P2;SDS_P1;SDS_P2;PMS_P1;PMS_P2;Temp;Humidity;BMP_temperature;BMP_pressure;BME280_temperature;BME280_humidity;BME280_pressure;Samples;Min_cycle;Max_cycle;Signal;HPM_P1;HPM_P2
2021/08/31 00:00:40;;;;;;;4.88;4.15;;;;;;;;;;10279121;28;20056;-60
2021/08/31 00:05:39;;;;;;;4.10;3.72;;;;;;;;;;10278457;28;20434;-60
2021/08/31 00:10:38;;;;;;;3.50;3.20;;;;;;;;;;10278179;28;20052;-61
2021/08/31 00:15:37;;;;;;;5.95;3.60;;;;;;;;;;10277662;28;20087;-61
2021/08/31 00:20:35;;;;;;;3.63;3.33;;;;;;;;;;10277845;28;20048;-60
2021/08/31 00:25:33;;;;;;;3.80;3.42;;;;;;;;;;10277630;28;20418;-61
2021/08/31 00:30:33;;;;;;;3.90;2.83;;;;;;;;;;10277364;28;20049;-61
2021/08/31 00:35:31;;;;;;;8.88;3.97;;;;;;;;;;10277455;28;20477;-61
2021/08/31 00:40:30;;;;;;;4.78;3.75;;;;;;;;;;10277146;28;20044;-61
2021/08/31 00:45:28;;;;;;;4.13;3.75;;;;;;;;;;10276927;28;20040;-60
2021/08/31 00:50:28;;;;;;;4.57;3.40;;;;;;;;;;10277120;28;20060;-61
2021/08/31 00:55:26;;;;;;;4.57;4.18;;;;;;;;;;10276491;28;20080;-61
2021/08/31 01:00:25;;;;;;;5.38;3.45;;;;;;;;;;10276341;28;20072;-58
2021/08/31 01:05:23;;;;;;;3.95;3.60;;;;;;;;;;10276073;28;20053;-59
2021/08/31 01:10:23;;;;;;;5.72;3.58;;;;;;;;;;10276326;28;20037;-59
2021/08/31 01:15:22;;;;;;;4.30;3.90;;;;;;;;;;10275942;28;20045;-59
2021/08/31 01:20:21;;;;;;;4.18;3.78;;;;;;;;;;10275781;28;20072;-58
2021/08/31 01:25:31;;;;;;;3.70;3.40;;;;;;;;;;10274581;28;20071;-58
2021/08/31 01:30:29;;;;;;;4.53;3.53;;;;;;;;;;10275467;28;20049;-59
2021/08/31 01:35:27;;;;;;;8.23;3.58;;;;;;;;;;10275467;28;20049;-58
2021/08/31 01:40:26;;;;;;;3.47;3.17;;;;;;;;;;10275912;28;20083;-59
2021/08/31 01:45:25;;;;;;;6.25;4.07;;;;;;;;;;10275288;28;20045;-60
2021/08/31 01:50:24;;;;;;;9.13;3.92;;;;;;;;;;10275623;28;20091;-60
2021/08/31 01:55:22;;;;;;;5.05;4.32;;;;;;;;;;10275047;28;20056;-59
2021/08/31 02:00:20;;;;;;;4.10;3.70;;;;;;;;;;10275091;28;20148;-59
2021/08/31 02:05:20;;;;;;;4.75;4.35;;;;;;;;;;10274877;28;20430;-59
2021/08/31 02:10:19;;;;;;;4.03;3.67;;;;;;;;;;10275002;28;20052;-59
2021/08/31 02:15:17;;;;;;;5.30;4.07;;;;;;;;;;10275805;28;20056;-59
2021/08/31 02:20:15;;;;;;;4.88;4.47;;;;;;;;;;10275089;28;20080;-59
2021/08/31 02:25:15;;;;;;;4.35;3.97;;;;;;;;;;10275550;28;20509;-59
2021/08/31 02:30:14;;;;;;;4.47;3.92;;;;;;;;;;10275530;28;20048;-59
2021/08/31 02:35:12;;;;;;;4.72;4.25;;;;;;;;;;10276766;28;20045;-59
2021/08/31 02:40:11;;;;;;;5.55;3.78;;;;;;;;;;10282782;28;20077;-59
2021/08/31 02:45:12;;;;;;;5.55;4.25;;;;;;;;;;10282659;28;20047;-59
2021/08/31 02:50:10;;;;;;;5.07;4.65;;;;;;;;;;10281777;28;20060;-59
2021/08/31 02:55:09;;;;;;;5.18;4.70;;;;;;;;;;10282322;28;20044;-59
2021/08/31 03:00:08;;;;;;;6.05;4.15;;;;;;;;;;10281654;28;20081;-58
2021/08/31 03:05:09;;;;;;;5.45;3.83;;;;;;;;;;10299994;28;20084;-59
2021/08/31 03:10:08;;;;;;;4.90;4.43;;;;;;;;;;10296474;28;20059;-59
2021/08/31 03:15:07;;;;;;;5.78;4.63;;;;;;;;;;10300091;28;20092;-59
2021/08/31 03:20:06;;;;;;;5.13;4.38;;;;;;;;;;10301274;28;20557;-59
2021/08/31 03:25:07;;;;;;;5.38;4.60;;;;;;;;;;10303638;28;20095;-59
2021/08/31 03:30:06;;;;;;;5.25;4.65;;;;;;;;;;10293325;28;20072;-59
2021/08/31 03:35:05;;;;;;;5.28;4.80;;;;;;;;;;10282532;28;20475;-59
2021/08/31 03:40:03;;;;;;;4.53;4.22;;;;;;;;;;10291940;28;20064;-59
2021/08/31 03:45:03;;;;;;;4.53;4.18;;;;;;;;;;10309257;28;20064;-59
2021/08/31 03:50:01;;;;;;;6.35;4.45;;;;;;;;;;10314900;28;20087;-59
2021/08/31 03:55:00;;;;;;;5.07;4.60;;;;;;;;;;10316465;28;20090;-59
2021/08/31 03:59:58;;;;;;;4.35;3.95;;;;;;;;;;10316238;28;20068;-60
2021/08/31 04:04:58;;;;;;;4.55;4.15;;;;;;;;;;10318570;28;20048;-60
2021/08/31 04:09:56;;;;;;;5.95;4.00;;;;;;;;;;10320213;28;20485;-60
2021/08/31 04:14:54;;;;;;;5.88;5.38;;;;;;;;;;10319826;28;20040;-61
2021/08/31 04:19:52;;;;;;;14.38;12.00;;;;;;;;;;10318427;28;20071;-60
2021/08/31 04:24:52;;;;;;;8.38;6.85;;;;;;;;;;10319226;28;20401;-61
2021/08/31 04:29:50;;;;;;;9.25;6.50;;;;;;;;;;10319172;28;20040;-61
2021/08/31 04:34:51;;;;;;;43.80;38.75;;;;;;;;;;10318993;28;20051;-61
2021/08/31 04:39:50;;;;;;;5.20;4.70;;;;;;;;;;10318713;28;20460;-60
2021/08/31 04:44:50;;;;;;;10.40;6.45;;;;;;;;;;10318461;28;20493;-61
2021/08/31 04:49:48;;;;;;;5.90;5.30;;;;;;;;;;10316529;28;20083;-60
2021/08/31 04:54:46;;;;;;;7.88;6.38;;;;;;;;;;10316287;28;20084;-60
2021/08/31 04:59:44;;;;;;;6.43;5.18;;;;;;;;;;10315899;28;20072;-60
2021/08/31 05:04:44;;;;;;;5.53;5.03;;;;;;;;;;10317628;28;20079;-60
2021/08/31 05:09:42;;;;;;;9.15;4.97;;;;;;;;;;10317807;28;20048;-60
2021/08/31 05:14:41;;;;;;;5.25;4.47;;;;;;;;;;10317669;28;20060;-61
2021/08/31 05:19:42;;;;;;;8.57;6.70;;;;;;;;;;10317399;28;20457;-61
2021/08/31 05:24:42;;;;;;;7.43;5.32;;;;;;;;;;10317411;28;20084;-61
2021/08/31 05:29:41;;;;;;;18.23;14.05;;;;;;;;;;10316917;28;20048;-61
2021/08/31 05:34:39;;;;;;;9.70;5.13;;;;;;;;;;10317380;28;20418;-61
2021/08/31 05:39:38;;;;;;;13.93;4.68;;;;;;;;;;10317010;28;20072;-61
2021/08/31 05:44:39;;;;;;;9.70;4.68;;;;;;;;;;10317099;28;20056;-61
2021/08/31 05:49:37;;;;;;;4.40;4.00;;;;;;;;;;10316500;28;20056;-61
2021/08/31 05:54:36;;;;;;;3.97;3.60;;;;;;;;;;10316624;28;20072;-61
2021/08/31 05:59:39;;;;;;;8.73;3.90;;;;;;;;;;10316754;28;20529;-62
2021/08/31 06:04:37;;;;;;;13.80;4.57;;;;;;;;;;10316597;28;20056;-61
2021/08/31 06:09:37;;;;;;;7.10;4.18;;;;;;;;;;10316968;28;20535;-61
2021/08/31 06:14:36;;;;;;;5.22;4.10;;;;;;;;;;10324573;28;20079;-61
2021/08/31 06:19:35;;;;;;;3.30;3.00;;;;;;;;;;10324225;28;20079;-61
2021/08/31 06:24:34;;;;;;;6.95;3.30;;;;;;;;;;10323928;28;20047;-61
2021/08/31 06:29:32;;;;;;;4.10;3.28;;;;;;;;;;10323774;28;20036;-61
2021/08/31 06:34:31;;;;;;;3.95;3.47;;;;;;;;;;10322626;28;20036;-62
2021/08/31 06:39:30;;;;;;;4.20;3.47;;;;;;;;;;10323365;28;20068;-61
2021/08/31 06:44:29;;;;;;;8.27;4.05;;;;;;;;;;10323216;28;20045;-62
2021/08/31 06:49:27;;;;;;;5.38;3.38;;;;;;;;;;10322408;28;20073;-62
2021/08/31 06:54:25;;;;;;;3.85;3.47;;;;;;;;;;10321026;28;20052;-62
2021/08/31 06:59:25;;;;;;;6.22;3.40;;;;;;;;;;10321584;28;20076;-61
2021/08/31 07:04:24;;;;;;;3.70;3.33;;;;;;;;;;10322701;28;20048;-62
2021/08/31 07:09:22;;;;;;;3.75;3.28;;;;;;;;;;10322306;28;20044;-62
2021/08/31 07:14:21;;;;;;;6.35;3.53;;;;;;;;;;10322031;28;20040;-62
2021/08/31 07:19:20;;;;;;;3.40;3.10;;;;;;;;;;10321995;28;20087;-62
2021/08/31 07:24:19;;;;;;;3.50;3.20;;;;;;;;;;10321728;28;20040;-62
2021/08/31 07:29:17;;;;;;;5.25;3.60;;;;;;;;;;10321418;28;20056;-62
2021/08/31 07:34:15;;;;;;;4.75;3.00;;;;;;;;;;10319593;28;20406;-61
2021/08/31 07:39:15;;;;;;;3.38;3.08;;;;;;;;;;10320941;28;20079;-62
2021/08/31 07:44:14;;;;;;;6.80;3.30;;;;;;;;;;10321049;28;20041;-62
2021/08/31 07:49:12;;;;;;;5.70;2.92;;;;;;;;;;10320363;28;20063;-62
2021/08/31 07:54:11;;;;;;;3.30;3.00;;;;;;;;;;10320523;28;20052;-59
2021/08/31 07:59:10;;;;;;;3.58;3.25;;;;;;;;;;10320474;28;20119;-61
2021/08/31 08:04:09;;;;;;;3.35;2.38;;;;;;;;;;10319945;28;20048;-62
2021/08/31 08:09:07;;;;;;;3.58;3.28;;;;;;;;;;10319711;28;20075;-61
2021/08/31 08:14:07;;;;;;;3.75;2.53;;;;;;;;;;10319602;28;20079;-61
2021/08/31 08:19:06;;;;;;;5.45;3.70;;;;;;;;;;10319121;28;20076;-61
2021/08/31 08:24:08;;;;;;;5.15;4.25;;;;;;;;;;10319079;28;20048;-62
2021/08/31 08:29:06;;;;;;;7.93;3.80;;;;;;;;;;10319039;28;20198;-61
2021/08/31 08:34:05;;;;;;;3.90;2.75;;;;;;;;;;10318344;28;20114;-61
2021/08/31 08:39:04;;;;;;;3.63;3.17;;;;;;;;;;10318439;28;20076;-61
2021/08/31 08:44:03;;;;;;;8.30;3.63;;;;;;;;;;10318188;28;20053;-61
2021/08/31 08:49:02;;;;;;;6.53;2.70;;;;;;;;;;10316955;28;20052;-61
2021/08/31 08:54:00;;;;;;;4.40;3.45;;;;;;;;;;10317902;28;20414;-61
2021/08/31 08:59:00;;;;;;;5.30;3.55;;;;;;;;;;10317755;28;20505;-61
2021/08/31 09:03:58;;;;;;;2.50;2.30;;;;;;;;;;10317193;28;20433;-61
2021/08/31 09:08:57;;;;;;;5.97;3.53;;;;;;;;;;10317693;28;20501;-61
2021/08/31 09:14:10;;;;;;;2.90;2.60;;;;;;;;;;10317631;28;20094;-61
2021/08/31 09:19:11;;;;;;;3.03;2.70;;;;;;;;;;10316346;28;20110;-61
2021/08/31 09:24:11;;;;;;;3.55;2.35;;;;;;;;;;10317266;28;20055;-61
2021/08/31 09:29:15;;;;;;;3.97;2.35;;;;;;;;;;10317366;28;20044;-61
2021/08/31 09:34:29;;;;;;;5.35;1.95;;;;;;;;;;10317183;28;20506;-61
2021/08/31 09:39:30;;;;;;;2.15;1.95;;;;;;;;;;10317103;28;20079;-61
2021/08/31 09:44:28;;;;;;;2.78;1.80;;;;;;;;;;10317185;28;20048;-61
2021/08/31 09:49:27;;;;;;;4.65;3.35;;;;;;;;;;10324220;28;20087;-61
2021/08/31 09:54:26;;;;;;;3.78;1.67;;;;;;;;;;10325067;28;20052;-61
2021/08/31 09:59:26;;;;;;;5.65;1.75;;;;;;;;;;10324937;28;20506;-61
2021/08/31 10:04:24;;;;;;;3.92;2.20;;;;;;;;;;10324829;28;20044;-61
2021/08/31 10:09:23;;;;;;;5.10;1.95;;;;;;;;;;10324985;28;20047;-62
2021/08/31 10:14:21;;;;;;;2.17;1.70;;;;;;;;;;10324413;28;20064;-61
2021/08/31 10:19:22;;;;;;;4.03;2.53;;;;;;;;;;10324095;28;20112;-61
2021/08/31 10:24:23;;;;;;;;;;;;;;;;;;10324503;28;20079;-60
2021/08/31 10:29:25;;;;;;;5.40;2.00;;;;;;;;;;10323848;28;20376;-62
2021/08/31 10:34:43;;;;;;;2.25;2.05;;;;;;;;;;10323669;28;20477;-62
2021/08/31 10:39:46;;;;;;;2.00;1.73;;;;;;;;;;10323477;28;20083;-62
2021/08/31 10:44:45;;;;;;;1.90;1.80;;;;;;;;;;10323440;28;20055;-60
2021/08/31 10:50:14;;;;;;;5.53;2.30;;;;;;;;;;10322030;28;20556;-61
2021/08/31 10:55:30;;;;;;;2.45;2.25;;;;;;;;;;10322954;28;20049;-61
2021/08/31 11:00:47;;;;;;;2.60;2.00;;;;;;;;;;10322213;28;20083;-61
2021/08/31 11:05:47;;;;;;;2.80;2.40;;;;;;;;;;10322553;28;20067;-61
2021/08/31 11:10:45;;;;;;;3.50;3.17;;;;;;;;;;10321482;28;20507;-61
2021/08/31 11:15:44;;;;;;;4.32;2.40;;;;;;;;;;10321342;28;20414;-61
2021/08/31 11:20:45;;;;;;;1.80;1.70;;;;;;;;;;10321018;28;20086;-61
2021/08/31 11:25:46;;;;;;;2.80;2.10;;;;;;;;;;10321279;28;20485;-61
2021/08/31 11:30:46;;;;;;;8.02;2.58;;;;;;;;;;10320909;28;20498;-61
2021/08/31 11:35:44;;;;;;;2.03;1.90;;;;;;;;;;10321428;28;20051;-62
2021/08/31 11:40:43;;;;;;;5.32;2.58;;;;;;;;;;10320340;28;20036;-61
2021/08/31 11:45:42;;;;;;;2.60;2.40;;;;;;;;;;10320088;28;20055;-61
2021/08/31 11:50:41;;;;;;;2.30;2.05;;;;;;;;;;10320411;28;20089;-61
2021/08/31 11:55:39;;;;;;;7.82;2.20;;;;;;;;;;10319599;28;20051;-61
2021/08/31 12:00:43;;;;;;;4.47;2.65;;;;;;;;;;10319827;28;20076;-61
2021/08/31 12:05:42;;;;;;;3.13;2.50;;;;;;;;;;10319368;28;20453;-61
2021/08/31 12:10:40;;;;;;;3.03;2.33;;;;;;;;;;10318258;28;20051;-62
2021/08/31 12:15:39;;;;;;;10.93;7.72;;;;;;;;;;10318852;28;20045;-62
2021/08/31 12:20:41;;;;;;;3.40;2.47;;;;;;;;;;10319061;28;20422;-62
2021/08/31 12:25:41;;;;;;;6.43;2.83;;;;;;;;;;10318946;28;20053;-62
2021/08/31 12:30:39;;;;;;;4.10;2.10;;;;;;;;;;10318748;28;20044;-62
2021/08/31 12:35:41;;;;;;;2.42;2.20;;;;;;;;;;10318031;28;20041;-62
2021/08/31 12:40:42;;;;;;;2.53;2.33;;;;;;;;;;10318165;28;20084;-62
2021/08/31 12:45:41;;;;;;;5.03;1.98;;;;;;;;;;10317623;28;20095;-62
2021/08/31 12:50:51;;;;;;;2.63;1.95;;;;;;;;;;10318215;28;20057;-62
2021/08/31 12:56:03;;;;;;;4.22;2.22;;;;;;;;;;10317190;28;20414;-62
2021/08/31 13:01:13;;;;;;;2.50;2.25;;;;;;;;;;10317172;28;20087;-62
2021/08/31 13:06:30;;;;;;;4.95;3.47;;;;;;;;;;10317220;28;20048;-62
2021/08/31 13:11:30;;;;;;;4.13;2.58;;;;;;;;;;10316801;28;20037;-62
2021/08/31 13:16:28;;;;;;;3.72;2.90;;;;;;;;;;10316543;28;20071;-62
2021/08/31 13:21:26;;;;;;;4.65;2.78;;;;;;;;;;10316541;28;20091;-62
2021/08/31 13:26:25;;;;;;;3.28;2.15;;;;;;;;;;10316744;28;20049;-62
2021/08/31 13:31:25;;;;;;;2.55;2.35;;;;;;;;;;10316341;28;20032;-61
2021/08/31 13:36:23;;;;;;;2.63;2.05;;;;;;;;;;10316599;28;20048;-62
2021/08/31 13:41:22;;;;;;;4.22;1.95;;;;;;;;;;10316246;28;20048;-62
2021/08/31 13:46:23;;;;;;;2.80;1.90;;;;;;;;;;10316012;28;20083;-62
2021/08/31 13:51:23;;;;;;;3.00;2.00;;;;;;;;;;10316278;28;20067;-61
2021/08/31 13:56:21;;;;;;;4.50;2.10;;;;;;;;;;10316159;28;20040;-62
2021/08/31 14:01:19;;;;;;;2.67;2.38;;;;;;;;;;10316082;28;20076;-62
2021/08/31 14:06:23;;;;;;;4.03;2.10;;;;;;;;;;10316022;28;20048;-62
2021/08/31 14:11:22;;;;;;;2.30;1.60;;;;;;;;;;10315797;28;20040;-61
2021/08/31 14:16:20;;;;;;;1.70;1.60;;;;;;;;;;10315727;28;20064;-62
2021/08/31 14:21:20;;;;;;;3.60;2.20;;;;;;;;;;10316045;28;20131;-62
2021/08/31 14:26:22;;;;;;;3.20;2.75;;;;;;;;;;10315508;28;20083;-62
2021/08/31 14:31:20;;;;;;;1.98;1.67;;;;;;;;;;10306865;28;20533;-61
2021/08/31 14:36:19;;;;;;;3.83;2.55;;;;;;;;;;10281214;28;20083;-60
2021/08/31 14:41:18;;;;;;;2.78;1.80;;;;;;;;;;10295403;28;20076;-61
2021/08/31 14:46:17;;;;;;;3.83;2.08;;;;;;;;;;10298234;28;20476;-61
2021/08/31 14:51:16;;;;;;;3.92;1.80;;;;;;;;;;10300017;28;20477;-60
2021/08/31 14:56:15;;;;;;;3.40;2.15;;;;;;;;;;10301119;28;20045;-61
2021/08/31 15:01:13;;;;;;;2.85;1.60;;;;;;;;;;10299448;28;20068;-61
2021/08/31 15:06:13;;;;;;;5.43;3.03;;;;;;;;;;10300825;28;20068;-61
2021/08/31 15:11:12;;;;;;;2.58;1.60;;;;;;;;;;10297063;28;20521;-60
2021/08/31 15:16:10;;;;;;;3.72;3.38;;;;;;;;;;10301749;28;20068;-62
2021/08/31 15:21:08;;;;;;;8.00;4.45;;;;;;;;;;10307959;28;20080;-62
2021/08/31 15:26:08;;;;;;;5.15;3.58;;;;;;;;;;10300179;28;20068;-61
2021/08/31 15:31:06;;;;;;;3.60;2.97;;;;;;;;;;10308465;28;20044;-60
2021/08/31 15:36:05;;;;;;;8.82;2.92;;;;;;;;;;10288399;28;20061;-62
2021/08/31 15:41:03;;;;;;;4.72;4.28;;;;;;;;;;10279003;28;20055;-60
2021/08/31 15:46:03;;;;;;;4.40;3.97;;;;;;;;;;10291201;28;20092;-61
2021/08/31 15:51:01;;;;;;;5.75;5.05;;;;;;;;;;10303657;28;20045;-60
2021/08/31 15:55:59;;;;;;;4.43;3.83;;;;;;;;;;10281565;28;20096;-60
2021/08/31 16:00:58;;;;;;;8.07;4.80;;;;;;;;;;10286580;28;20486;-60
2021/08/31 16:05:58;;;;;;;6.28;2.85;;;;;;;;;;10304691;28;20084;-61
2021/08/31 16:10:57;;;;;;;3.58;3.20;;;;;;;;;;10296088;28;20052;-59
2021/08/31 16:15:56;;;;;;;12.98;3.85;;;;;;;;;;10294940;28;20048;-61
2021/08/31 16:20:58;;;;;;;4.00;3.08;;;;;;;;;;10278340;28;20099;-61
2021/08/31 16:25:56;;;;;;;7.38;5.10;;;;;;;;;;10284172;28;20072;-60
2021/08/31 16:30:54;;;;;;;8.32;3.47;;;;;;;;;;10314480;28;20493;-60
2021/08/31 16:35:53;;;;;;;14.35;4.88;;;;;;;;;;10313741;28;20107;-61
2021/08/31 16:40:53;;;;;;;11.05;3.88;;;;;;;;;;10313475;28;20363;-59
2021/08/31 16:45:51;;;;;;;11.80;4.45;;;;;;;;;;10317142;28;20075;-60
2021/08/31 16:50:50;;;;;;;8.88;3.45;;;;;;;;;;10317879;28;20056;-60
2021/08/31 16:55:49;;;;;;;9.93;3.58;;;;;;;;;;10303172;28;20067;-60
2021/08/31 17:00:49;;;;;;;8.38;6.88;;;;;;;;;;10294988;28;20068;-59
2021/08/31 17:05:47;;;;;;;11.70;6.75;;;;;;;;;;10294572;28;20079;-59
2021/08/31 17:10:48;;;;;;;8.70;5.57;;;;;;;;;;10286911;28;20068;-59
2021/08/31 17:15:46;;;;;;;9.57;6.40;;;;;;;;;;10284500;28;20088;-60
2021/08/31 17:20:46;;;;;;;10.05;5.43;;;;;;;;;;10301244;28;20048;-58
2021/08/31 17:25:44;;;;;;;6.45;4.63;;;;;;;;;;10286095;28;20144;-60
2021/08/31 17:30:44;;;;;;;8.20;4.40;;;;;;;;;;10297759;28;20032;-60
2021/08/31 17:35:42;;;;;;;9.50;5.50;;;;;;;;;;10293340;28;20051;-60
2021/08/31 17:40:46;;;;;;;9.00;5.32;;;;;;;;;;10280816;28;20077;-60
2021/08/31 17:45:44;;;;;;;10.23;4.53;;;;;;;;;;10302102;28;20076;-60
2021/08/31 17:50:43;;;;;;;7.68;4.50;;;;;;;;;;10317707;28;20516;-61
2021/08/31 17:55:41;;;;;;;7.30;4.13;;;;;;;;;;10316203;28;20075;-60
2021/08/31 18:00:41;;;;;;;6.35;3.83;;;;;;;;;;10299781;28;20064;-59
2021/08/31 18:05:39;;;;;;;5.05;3.85;;;;;;;;;;10299054;28;20076;-60
2021/08/31 18:10:39;;;;;;;8.70;4.05;;;;;;;;;;10282843;28;20106;-60
2021/08/31 18:15:37;;;;;;;8.63;3.33;;;;;;;;;;10273069;28;20080;-60
2021/08/31 18:20:37;;;;;;;4.43;3.15;;;;;;;;;;10282696;28;20418;-60
2021/08/31 18:25:36;;;;;;;5.88;3.50;;;;;;;;;;10281786;28;20083;-60
2021/08/31 18:30:34;;;;;;;9.20;3.20;;;;;;;;;;10282259;28;20080;-60
2021/08/31 18:35:32;;;;;;;7.60;3.00;;;;;;;;;;10289250;28;20076;-60
2021/08/31 18:40:34;;;;;;;8.52;3.08;;;;;;;;;;10293473;28;20075;-61
2021/08/31 18:45:32;;;;;;;5.35;2.92;;;;;;;;;;10290746;28;20072;-60
2021/08/31 18:50:31;;;;;;;6.80;2.90;;;;;;;;;;10301621;28;20057;-60
2021/08/31 18:55:30;;;;;;;7.60;2.90;;;;;;;;;;10289781;28;20064;-61
2021/08/31 19:00:30;;;;;;;4.45;2.70;;;;;;;;;;10313777;28;20045;-61
2021/08/31 19:05:28;;;;;;;4.55;2.20;;;;;;;;;;10315795;28;20079;-59
2021/08/31 19:10:26;;;;;;;5.97;3.15;;;;;;;;;;10289442;28;20069;-59
2021/08/31 19:15:25;;;;;;;4.28;2.20;;;;;;;;;;10291924;28;20064;-59
2021/08/31 19:20:25;;;;;;;5.63;3.00;;;;;;;;;;10293983;28;20056;-60
2021/08/31 19:25:23;;;;;;;2.58;2.30;;;;;;;;;;10299837;28;20096;-60
2021/08/31 19:30:22;;;;;;;4.32;2.10;;;;;;;;;;10289155;28;20094;-60
2021/08/31 19:35:20;;;;;;;4.68;2.25;;;;;;;;;;10295690;28;20064;-59
2021/08/31 19:40:20;;;;;;;3.58;2.08;;;;;;;;;;10293458;28;20040;-59
2021/08/31 19:45:18;;;;;;;2.22;2.00;;;;;;;;;;10291803;28;20068;-59
2021/08/31 19:50:16;;;;;;;2.38;1.95;;;;;;;;;;10309430;28;20064;-58
2021/08/31 19:55:15;;;;;;;8.05;2.28;;;;;;;;;;10296887;28;20458;-59
2021/08/31 20:00:17;;;;;;;2.30;2.10;;;;;;;;;;10298175;28;20454;-59
2021/08/31 20:05:16;;;;;;;5.03;2.13;;;;;;;;;;10294929;28;20465;-59
2021/08/31 20:10:15;;;;;;;6.65;3.60;;;;;;;;;;10297120;28;20044;-59
2021/08/31 20:15:15;;;;;;;7.18;3.47;;;;;;;;;;10279256;28;20076;-59
2021/08/31 20:20:13;;;;;;;4.22;2.78;;;;;;;;;;10278327;28;20041;-59
2021/08/31 20:25:12;;;;;;;4.22;3.08;;;;;;;;;;10283395;28;20080;-60
2021/08/31 20:30:10;;;;;;;4.13;2.83;;;;;;;;;;10290989;28;20087;-59
2021/08/31 20:35:13;;;;;;;7.32;2.28;;;;;;;;;;10277974;28;20045;-60
2021/08/31 20:40:12;;;;;;;5.25;2.58;;;;;;;;;;10278003;28;20049;-59
2021/08/31 20:45:13;;;;;;;2.30;2.10;;;;;;;;;;10277662;28;20080;-59
2021/08/31 20:50:15;;;;;;;6.85;2.42;;;;;;;;;;10276590;28;20052;-59
2021/08/31 20:55:14;;;;;;;6.72;2.47;;;;;;;;;;10277864;28;20198;-60
2021/08/31 21:00:12;;;;;;;5.68;2.85;;;;;;;;;;10277288;28;20075;-60
2021/08/31 21:05:12;;;;;;;2.70;2.50;;;;;;;;;;10277150;28;20524;-60
2021/08/31 21:10:12;;;;;;;7.00;2.58;;;;;;;;;;10277594;28;20486;-60
2021/08/31 21:15:11;;;;;;;3.22;2.30;;;;;;;;;;10277260;28;20402;-59
2021/08/31 21:20:10;;;;;;;3.58;2.33;;;;;;;;;;10277040;28;20095;-60
2021/08/31 21:25:10;;;;;;;2.90;2.60;;;;;;;;;;10277027;28;20084;-60
2021/08/31 21:30:08;;;;;;;2.90;2.33;;;;;;;;;;10276987;28;20414;-60
2021/08/31 21:35:07;;;;;;;7.82;2.38;;;;;;;;;;10276908;28;20048;-60
2021/08/31 21:40:06;;;;;;;5.63;2.28;;;;;;;;;;10276568;28;20045;-60
2021/08/31 21:45:06;;;;;;;5.70;2.20;;;;;;;;;;10276387;28;20076;-60
2021/08/31 21:50:05;;;;;;;4.20;2.42;;;;;;;;;;10275416;28;20060;-60
2021/08/31 21:55:03;;;;;;;3.15;2.40;;;;;;;;;;10276435;28;20529;-60
2021/08/31 22:00:04;;;;;;;2.97;2.55;;;;;;;;;;10276368;28;20071;-60
2021/08/31 22:05:08;;;;;;;4.77;2.43;;;;;;;;;;10276869;28;20088;-60
2021/08/31 22:10:07;;;;;;;3.08;2.70;;;;;;;;;;10276089;28;20232;-59
2021/08/31 22:15:06;;;;;;;3.90;3.30;;;;;;;;;;10276018;28;20391;-60
2021/08/31 22:20:06;;;;;;;8.07;3.05;;;;;;;;;;10275889;28;20037;-60
2021/08/31 22:25:07;;;;;;;7.88;4.55;;;;;;;;;;10275671;28;20045;-60
2021/08/31 22:30:06;;;;;;;8.27;3.33;;;;;;;;;;10275684;28;20067;-60
2021/08/31 22:35:05;;;;;;;5.03;2.90;;;;;;;;;;10275568;28;20048;-60
2021/08/31 22:40:04;;;;;;;4.40;3.10;;;;;;;;;;10275404;28;20512;-60
2021/08/31 22:45:04;;;;;;;3.95;2.70;;;;;;;;;;10275299;28;20080;-59
2021/08/31 22:50:03;;;;;;;5.80;2.97;;;;;;;;;;10273723;28;20045;-58
2021/08/31 22:55:01;;;;;;;3.60;2.90;;;;;;;;;;10280626;28;20048;-58
2021/08/31 23:00:00;;;;;;;5.28;3.45;;;;;;;;;;10282296;28;20045;-59
2021/08/31 23:05:00;;;;;;;4.05;2.80;;;;;;;;;;10282052;28;20075;-59
2021/08/31 23:09:59;;;;;;;6.38;2.75;;;;;;;;;;10278775;28;20501;-59
2021/08/31 23:14:58;;;;;;;3.25;2.88;;;;;;;;;;10277791;28;20562;-60
2021/08/31 23:19:56;;;;;;;6.60;2.85;;;;;;;;;;10277422;28;20087;-60
2021/08/31 23:24:56;;;;;;;3.03;2.72;;;;;;;;;;10280321;28;20076;-60
2021/08/31 23:29:55;;;;;;;6.15;3.00;;;;;;;;;;10281110;28;20059;-60
2021/08/31 23:34:53;;;;;;;6.13;3.22;;;;;;;;;;10280745;28;20049;-59
2021/08/31 23:39:51;;;;;;;4.68;3.38;;;;;;;;;;10280774;28;20052;-59
2021/08/31 23:44:51;;;;;;;4.45;2.92;;;;;;;;;;10279521;28;20459;-60
2021/08/31 23:49:49;;;;;;;3.38;2.80;;;;;;;;;;10278005;28;20438;-60
2021/08/31 23:54:48;;;;;;;4.40;3.10;;;;;;;;;;10280369;28;20071;-60
2021/08/31 23:59:46;;;;;;;2.88;2.58;;;;;;;;;;10279172;28;20514;-60
